CheckWX is a tool to help pilots better visualize weather data.  It is not intended as a substitute for an official pre-flight weather briefing.

09:41:26 UTC

KEFD METAR
Ellington Airport
Houston, Texas, USA
Current

51 mins ago

KEFD 250850Z 00000KT 10SM FEW020 OVC250 25/22 A2987
Observed
Aug-25 @ 08:50 UTC
Visibility
10 SM
Flight Rules
VFR
Cloud Levels
  • Few at 2,000' AGL
  • Overcast at 25,000' AGL
Temperature
25°C / 77°F
Dewpoint
22°C / 72°F
Humidity
83%
Altimeter
29.87" Hg
Pressure
1011.52 hPa
Previous

4 hours ago

KEFD 250550Z 21006KT 10SM FEW030 OVC250 26/22 A2990
Observed
Aug-25 @ 05:50 UTC
Wind
  • 210° at 6 KTS
Visibility
10 SM
Flight Rules
VFR
Cloud Levels
  • Few at 3,000' AGL
  • Overcast at 25,000' AGL
Temperature
26°C / 79°F
Dewpoint
22°C / 72°F
Humidity
79%
Altimeter
29.9" Hg
Pressure
1012.52 hPa
Previous

5 hours ago

KEFD 250450Z 18003KT 10SM FEW030 OVC250 26/22 A2990
Observed
Aug-25 @ 04:50 UTC
Wind
  • 180° at 3 KTS
Visibility
10 SM
Flight Rules
VFR
Cloud Levels
  • Few at 3,000' AGL
  • Overcast at 25,000' AGL
Temperature
26°C / 79°F
Dewpoint
22°C / 72°F
Humidity
79%
Altimeter
29.9" Hg
Pressure
1012.52 hPa